Logrono/Agoncillo, Spain
Current Conditions -  °F | °C
As of 7:00 PM on Monday 26 Jan 2015 (Local Time) from LELO Reporting Station
Scattered Clouds Scattered Clouds  
Wind Chill: 41°   Ceiling: Unl
Heat Index: 45°   Visibility: 6mi
Dew Point: 37°   Wind: 7mph
Humidity: 76%   Direction: 290°WNW
Pressure: 30.48"   Gusts: NA
Location:  42.46°N, 2.31°W
Report Text: LELO 261800Z 29006KT 260V330 9999 FEW035 SCT065 07/03 Q1032
Loading
Personal Weather Stations






























Interactive Weather Map New forecast layout! Learn more

10-Day Weather Forecast

Advertisements
Track Severe Weather on mobile